Time;durP1;ratioP1;P1;durP2;ratioP2;P2;SDS_P1;SDS_P2;PMS_P1;PMS_P2;Temp;Humidity;BMP_temperature;BMP_pressure;BME280_temperature;BME280_humidity;BME280_pressure;Samples;Min_cycle;Max_cycle;Signal;HPM_P1;HPM_P2
2023/04/06 00:01:57;;;;;;;8.25;5.55;;;5.40;99.90;;;;;;5012362;28;20022;-84
2023/04/06 00:04:29;;;;;;;8.23;5.20;;;6.10;99.90;;;;;;5010504;28;20055;-85
2023/04/06 00:06:55;;;;;;;7.43;4.82;;;5.30;99.90;;;;;;5012586;28;20053;-83
2023/04/06 00:09:20;;;;;;;8.50;5.07;;;6.00;99.90;;;;;;5009431;28;20026;-84
2023/04/06 00:11:49;;;;;;;9.02;4.78;;;5.10;99.90;;;;;;5006823;28;20031;-85
2023/04/06 00:14:17;;;;;;;8.48;5.47;;;5.20;99.90;;;;;;5014109;28;20026;-86
2023/04/06 00:16:46;;;;;;;10.90;5.82;;;5.00;99.90;;;;;;5016227;28;20026;-83
2023/04/06 00:19:11;;;;;;;15.18;6.78;;;4.80;99.90;;;;;;5010482;28;20065;-81
2023/04/06 00:21:37;;;;;;;12.75;6.85;;;5.70;99.90;;;;;;5013318;28;20021;-86
2023/04/06 00:24:03;;;;;;;10.85;5.72;;;5.00;99.90;;;;;;5016531;28;20030;-86
2023/04/06 00:26:29;;;;;;;9.68;5.70;;;4.90;99.90;;;;;;5015627;28;20018;-83
2023/04/06 00:28:58;;;;;;;9.52;5.72;;;4.80;99.90;;;;;;5016707;28;20805;-84
2023/04/06 00:31:24;;;;;;;13.70;6.50;;;4.80;99.90;;;;;;5017966;28;20033;-82
2023/04/06 00:33:50;;;;;;;11.75;6.65;;;4.80;99.90;;;;;;5011366;28;20022;-82
2023/04/06 00:36:16;;;;;;;10.73;6.22;;;4.80;99.90;;;;;;5018644;28;20045;-82
2023/04/06 00:38:41;;;;;;;13.73;6.40;;;4.80;99.90;;;;;;5016717;28;20107;-84
2023/04/06 00:41:07;;;;;;;11.43;6.18;;;4.70;99.90;;;;;;5007140;28;20013;-83
2023/04/06 00:43:33;;;;;;;11.82;6.57;;;5.20;99.90;;;;;;5014082;28;20098;-84
2023/04/06 00:46:02;;;;;;;11.52;6.03;;;4.70;99.90;;;;;;5024212;28;20052;-86
2023/04/06 00:48:30;;;;;;;10.68;6.28;;;4.60;99.90;;;;;;5026385;28;20080;-82
2023/04/06 00:50:58;;;;;;;10.23;6.55;;;5.50;99.90;;;;;;5020695;28;20032;-82
2023/04/06 00:53:25;;;;;;;12.63;6.47;;;4.60;99.90;;;;;;5021813;28;20024;-83
2023/04/06 00:55:53;;;;;;;9.50;5.55;;;5.30;99.90;;;;;;5029631;28;20045;-83
2023/04/06 00:58:19;;;;;;;8.80;5.95;;;4.50;99.90;;;;;;5017889;28;20038;-82
2023/04/06 01:00:45;;;;;;;11.05;5.80;;;5.00;99.90;;;;;;5015690;28;20034;-83
2023/04/06 01:03:11;;;;;;;10.55;5.70;;;4.50;99.90;;;;;;5015909;28;20026;-83
2023/04/06 01:05:43;;;;;;;11.02;6.93;;;4.50;99.90;;;;;;5013034;28;20026;-84
2023/04/06 01:08:10;;;;;;;9.88;5.25;;;4.30;99.90;;;;;;5014901;28;19956;-83
2023/04/06 01:10:36;;;;;;;8.38;5.18;;;4.40;99.90;;;;;;5017359;28;20026;-81
2023/04/06 01:13:01;;;;;;;9.90;5.25;;;4.00;99.90;;;;;;5018301;28;20022;-82
2023/04/06 01:15:29;;;;;;;10.52;5.47;;;4.30;99.90;;;;;;5028577;28;20052;-82
2023/04/06 01:17:55;;;;;;;7.78;5.25;;;4.30;99.90;;;;;;5015564;28;21574;-81
2023/04/06 01:20:21;;;;;;;9.18;5.50;;;4.30;99.90;;;;;;5024811;28;20034;-82
2023/04/06 01:22:47;;;;;;;11.15;5.70;;;4.20;99.90;;;;;;5009850;28;20094;-85
2023/04/06 01:25:12;;;;;;;9.93;5.95;;;4.30;99.90;;;;;;5022783;28;20030;-81
2023/04/06 01:27:38;;;;;;;12.65;6.05;;;4.10;99.90;;;;;;5023966;28;20042;-84
2023/04/06 01:30:05;;;;;;;10.18;5.50;;;4.70;99.90;;;;;;5019095;28;20030;-81
2023/04/06 01:32:31;;;;;;;9.60;5.80;;;4.00;99.90;;;;;;5016487;28;20036;-82
2023/04/06 01:34:56;;;;;;;9.65;5.55;;;4.00;99.90;;;;;;5013987;28;20097;-81
2023/04/06 01:37:22;;;;;;;12.25;6.85;;;4.00;99.90;;;;;;5017567;28;20038;-81
2023/04/06 01:39:48;;;;;;;11.43;6.22;;;3.90;99.90;;;;;;5022867;28;20029;-83
2023/04/06 01:42:14;;;;;;;10.27;5.68;;;4.10;99.90;;;;;;5017928;28;20026;-82
2023/04/06 01:44:40;;;;;;;11.32;5.88;;;3.80;99.90;;;;;;5023262;28;20061;-82
2023/04/06 01:47:05;;;;;;;10.30;5.97;;;4.10;99.90;;;;;;5023572;28;20061;-87
2023/04/06 01:49:31;;;;;;;9.70;6.18;;;3.80;99.90;;;;;;5028970;28;20270;-89
2023/04/06 01:51:57;;;;;;;12.05;6.22;;;3.80;99.90;;;;;;5025760;28;20021;-86
2023/04/06 01:54:23;;;;;;;9.73;6.40;;;3.80;99.90;;;;;;5020693;28;20030;-82
2023/04/06 01:56:51;;;;;;;13.55;6.50;;;3.80;99.90;;;;;;5023886;28;20021;-81
2023/04/06 01:59:16;;;;;;;9.68;6.50;;;4.10;99.90;;;;;;5015959;28;20079;-82
2023/04/06 02:01:42;;;;;;;10.82;6.32;;;3.70;99.90;;;;;;5025222;28;20076;-81
2023/04/06 02:04:08;;;;;;;11.60;6.47;;;4.20;99.90;;;;;;5017637;28;20048;-81
2023/04/06 02:06:34;;;;;;;10.30;6.13;;;3.70;99.90;;;;;;5017873;28;20101;-81
2023/04/06 02:08:59;;;;;;;8.90;5.45;;;4.00;99.90;;;;;;5018168;28;20030;-82
2023/04/06 02:11:25;;;;;;;9.13;6.10;;;4.30;99.90;;;;;;5017614;28;20033;-82
2023/04/06 02:13:51;;;;;;;10.00;6.15;;;3.50;99.90;;;;;;5013300;28;20064;-82
2023/04/06 02:16:17;;;;;;;11.70;6.28;;;3.60;99.90;;;;;;5017353;28;20038;-82
2023/04/06 02:18:50;;;;;;;11.40;5.78;;;4.00;99.90;;;;;;5015121;28;20034;-78
2023/04/06 02:21:19;;;;;;;11.02;6.43;;;3.50;99.90;;;;;;5014236;28;20506;-82
2023/04/06 02:23:49;;;;;;;10.55;5.72;;;3.50;99.90;;;;;;5010687;28;20061;-84
2023/04/06 02:26:15;;;;;;;12.18;6.43;;;3.60;99.90;;;;;;5009845;28;20040;-81
2023/04/06 02:28:41;;;;;;;12.25;6.22;;;3.30;99.90;;;;;;5020395;28;20050;-83
2023/04/06 02:31:08;;;;;;;9.40;5.78;;;3.10;99.90;;;;;;5020484;28;20029;-83
2023/04/06 02:33:33;;;;;;;11.38;6.35;;;3.40;99.90;;;;;;5015285;28;20045;-83
2023/04/06 02:35:59;;;;;;;9.85;6.00;;;3.60;99.90;;;;;;5008412;28;20027;-82
2023/04/06 02:38:25;;;;;;;9.27;6.30;;;3.20;99.90;;;;;;4998494;28;20480;-82
2023/04/06 02:40:51;;;;;;;10.20;6.32;;;3.20;99.90;;;;;;5016609;28;20038;-82
2023/04/06 02:43:18;;;;;;;9.43;5.97;;;3.40;99.90;;;;;;5019472;28;20035;-82
2023/04/06 02:45:44;;;;;;;13.18;6.45;;;3.40;99.90;;;;;;5016607;28;20030;-83
2023/04/06 02:48:10;;;;;;;9.90;5.68;;;3.20;99.90;;;;;;5024340;28;20387;-82
2023/04/06 02:50:36;;;;;;;10.82;6.68;;;3.40;99.90;;;;;;5025020;28;20021;-82
2023/04/06 02:53:34;;;;;;;10.77;5.95;;;3.70;99.90;;;;;;5018287;28;20097;-84
2023/04/06 02:56:00;;;;;;;9.90;6.03;;;3.10;99.90;;;;;;5014481;28;20037;-83
2023/04/06 02:58:26;;;;;;;9.32;6.18;;;3.70;99.90;;;;;;5012698;28;20034;-82
2023/04/06 03:00:51;;;;;;;12.13;6.03;;;3.20;99.90;;;;;;5011347;28;20026;-82
2023/04/06 03:03:17;;;;;;;10.23;6.13;;;3.00;99.90;;;;;;5021280;28;20026;-82
2023/04/06 03:05:43;;;;;;;12.10;5.95;;;2.90;99.90;;;;;;5019167;28;20069;-81
2023/04/06 03:08:09;;;;;;;11.82;6.20;;;3.60;99.90;;;;;;5009842;28;20038;-82
2023/04/06 03:10:34;;;;;;;9.38;5.82;;;2.90;99.90;;;;;;4996768;28;20030;-83
2023/04/06 03:13:00;;;;;;;11.88;6.28;;;2.90;99.90;;;;;;5015249;28;20053;-82
2023/04/06 03:15:28;;;;;;;9.50;6.15;;;2.40;99.90;;;;;;5017305;28;20032;-82
2023/04/06 03:17:54;;;;;;;10.20;5.70;;;2.90;99.90;;;;;;5016546;28;20026;-81
2023/04/06 03:20:20;;;;;;;12.77;5.93;;;3.30;99.90;;;;;;5021338;28;20030;-81
2023/04/06 03:22:49;;;;;;;11.15;6.22;;;2.80;99.90;;;;;;4998613;28;20030;-85
2023/04/06 03:25:14;;;;;;;8.88;5.70;;;2.90;99.90;;;;;;5031403;28;20038;-82
2023/04/06 03:27:40;;;;;;;9.32;5.90;;;3.00;99.90;;;;;;5011988;28;20030;-81
2023/04/06 03:30:06;;;;;;;11.15;5.85;;;3.30;99.90;;;;;;5018501;28;20052;-83
2023/04/06 03:32:32;;;;;;;10.65;6.20;;;2.90;99.90;;;;;;5027940;28;20048;-84
2023/04/06 03:34:58;;;;;;;10.52;6.25;;;2.70;99.90;;;;;;5019353;28;20023;-82
2023/04/06 03:37:24;;;;;;;10.48;6.30;;;2.90;99.90;;;;;;5017436;28;20125;-81
2023/04/06 03:39:49;;;;;;;10.57;6.72;;;3.60;99.90;;;;;;5019889;28;20078;-83
2023/04/06 03:42:15;;;;;;;14.18;7.28;;;3.60;99.90;;;;;;5016086;28;20042;-82
2023/04/06 03:44:41;;;;;;;13.60;6.97;;;2.90;99.90;;;;;;5004305;28;20045;-82
2023/04/06 03:47:06;;;;;;;12.27;6.82;;;2.80;99.90;;;;;;5019918;28;20064;-83
2023/04/06 03:49:32;;;;;;;10.55;6.72;;;3.70;99.90;;;;;;5019052;28;20034;-84
2023/04/06 03:51:58;;;;;;;12.50;7.55;;;2.80;99.90;;;;;;5014030;28;20026;-82
2023/04/06 03:54:24;;;;;;;13.50;7.15;;;2.90;99.90;;;;;;5017559;28;20026;-84
2023/04/06 03:56:50;;;;;;;11.57;7.35;;;3.40;99.90;;;;;;5017341;28;20030;-82
2023/04/06 03:59:15;;;;;;;13.32;7.93;;;2.80;99.90;;;;;;5013165;28;20027;-82
2023/04/06 04:01:41;;;;;;;13.07;7.32;;;2.70;99.90;;;;;;5015204;28;20028;-82
2023/04/06 04:04:07;;;;;;;12.00;6.75;;;2.80;99.90;;;;;;4995713;28;20083;-83
2023/04/06 04:06:33;;;;;;;12.52;7.10;;;2.80;99.90;;;;;;5015229;28;20038;-82
2023/04/06 04:08:59;;;;;;;13.30;6.82;;;2.70;99.90;;;;;;5010473;28;20026;-82
2023/04/06 04:11:24;;;;;;;14.27;7.55;;;3.40;99.90;;;;;;5006456;28;20040;-84
2023/04/06 04:13:50;;;;;;;11.90;7.20;;;2.60;99.90;;;;;;5004259;28;20026;-82
2023/04/06 04:16:16;;;;;;;12.68;7.18;;;2.70;99.90;;;;;;5016610;28;20026;-82
2023/04/06 04:18:43;;;;;;;12.27;6.97;;;2.70;99.90;;;;;;5015884;28;20047;-81
2023/04/06 04:21:09;;;;;;;13.57;6.90;;;2.70;99.90;;;;;;5011054;28;20093;-82
2023/04/06 04:23:35;;;;;;;13.02;7.35;;;2.70;99.90;;;;;;5019325;28;20034;-82
2023/04/06 04:26:00;;;;;;;13.23;6.90;;;3.40;99.90;;;;;;5007055;28;20094;-82
2023/04/06 04:28:26;;;;;;;12.43;7.53;;;2.70;99.90;;;;;;5020650;28;20122;-82
2023/04/06 04:30:52;;;;;;;12.35;6.78;;;2.60;99.90;;;;;;5005261;28;20065;-82
2023/04/06 04:33:18;;;;;;;12.65;7.00;;;2.60;99.90;;;;;;5013644;28;20034;-83
2023/04/06 04:35:43;;;;;;;11.43;6.72;;;3.40;99.90;;;;;;5013180;28;20032;-82
2023/04/06 04:38:09;;;;;;;12.25;7.15;;;2.80;99.90;;;;;;5011232;28;20030;-83
2023/04/06 04:40:35;;;;;;;13.68;7.20;;;2.60;99.90;;;;;;5009424;28;20480;-83
2023/04/06 04:43:01;;;;;;;11.07;7.22;;;2.60;99.90;;;;;;4997192;28;20034;-82
2023/04/06 04:45:26;;;;;;;15.02;7.85;;;3.30;99.90;;;;;;5011420;28;20026;-83
2023/04/06 04:47:52;;;;;;;16.02;8.15;;;3.50;99.90;;;;;;5020784;28;20038;-87
2023/04/06 04:50:18;;;;;;;12.52;7.82;;;2.50;99.90;;;;;;5028011;28;20072;-87
2023/04/06 04:52:44;;;;;;;12.48;7.68;;;3.30;99.90;;;;;;5033687;28;20010;-88
2023/04/06 04:55:09;;;;;;;12.73;7.35;;;2.70;99.90;;;;;;5021155;28;20022;-88
2023/04/06 04:57:35;;;;;;;14.45;7.35;;;3.40;99.90;;;;;;5015972;28;20026;-82
2023/04/06 05:00:02;;;;;;;12.98;7.45;;;3.20;99.90;;;;;;5020102;28;20030;-82
2023/04/06 05:02:27;;;;;;;14.23;8.30;;;2.60;99.90;;;;;;5014039;28;20250;-83
2023/04/06 05:04:53;;;;;;;16.88;9.02;;;3.10;99.90;;;;;;5001336;28;20029;-83
2023/04/06 05:07:20;;;;;;;15.00;8.10;;;2.90;99.90;;;;;;5009067;28;20037;-82
2023/04/06 05:09:46;;;;;;;17.35;7.43;;;2.90;99.90;;;;;;5008893;28;20275;-83
2023/04/06 05:12:12;;;;;;;13.95;7.85;;;3.00;99.90;;;;;;5006707;28;20448;-82
2023/04/06 05:14:38;;;;;;;11.93;6.90;;;2.70;99.90;;;;;;5010864;28;20492;-83
2023/04/06 05:17:04;;;;;;;15.25;7.90;;;3.30;99.90;;;;;;5009882;28;20034;-82
2023/04/06 05:19:30;;;;;;;22.65;8.00;;;2.40;99.90;;;;;;5015240;28;20032;-83
2023/04/06 05:21:57;;;;;;;16.98;7.75;;;2.40;99.90;;;;;;5007499;28;20034;-81
2023/04/06 05:24:22;;;;;;;13.43;7.43;;;2.80;99.90;;;;;;5009138;28;20069;-83
2023/04/06 05:26:49;;;;;;;13.18;7.63;;;3.40;99.90;;;;;;5016985;28;20034;-82
2023/04/06 05:29:16;;;;;;;13.10;7.88;;;3.30;99.90;;;;;;5020504;28;20042;-82
2023/04/06 05:31:42;;;;;;;16.65;8.65;;;2.60;99.90;;;;;;5022120;28;20029;-81
2023/04/06 05:34:09;;;;;;;17.42;8.60;;;2.60;99.90;;;;;;5020221;28;20026;-82
2023/04/06 05:36:37;;;;;;;13.63;7.93;;;2.60;99.90;;;;;;5027772;28;20065;-81
2023/04/06 05:39:03;;;;;;;15.60;8.02;;;2.90;99.90;;;;;;5026048;28;20058;-83
2023/04/06 05:41:29;;;;;;;14.07;7.65;;;3.10;99.90;;;;;;5028740;28;20037;-82
2023/04/06 05:43:55;;;;;;;17.40;9.20;;;3.00;99.90;;;;;;5009218;28;20030;-82
2023/04/06 05:46:23;;;;;;;14.82;8.27;;;3.10;99.90;;;;;;5018714;28;20029;-82
2023/04/06 05:48:49;;;;;;;13.98;8.23;;;3.00;99.90;;;;;;5008987;28;20058;-82
2023/04/06 05:51:15;;;;;;;15.35;8.20;;;3.20;99.90;;;;;;5015535;28;20029;-82
2023/04/06 05:53:41;;;;;;;16.50;9.32;;;3.60;99.90;;;;;;5015671;28;20022;-80
2023/04/06 05:56:06;;;;;;;15.10;8.00;;;3.10;99.90;;;;;;5015306;28;20034;-82
2023/04/06 05:58:32;;;;;;;18.33;9.23;;;3.20;99.90;;;;;;5014376;28;20575;-82
2023/04/06 06:01:01;;;;;;;13.35;7.75;;;3.50;99.90;;;;;;5011690;28;20117;-83
2023/04/06 06:03:27;;;;;;;14.80;8.30;;;3.60;99.90;;;;;;5009963;28;20045;-81
2023/04/06 06:05:53;;;;;;;14.75;8.60;;;3.40;99.90;;;;;;5013420;28;20030;-85
2023/04/06 06:08:18;;;;;;;16.02;8.55;;;3.60;99.90;;;;;;5014666;28;20022;-83
2023/04/06 06:10:47;;;;;;;16.85;8.20;;;3.70;99.90;;;;;;5016295;28;20075;-87
2023/04/06 06:13:12;;;;;;;15.45;8.52;;;3.60;99.90;;;;;;5020177;28;20125;-79
2023/04/06 06:15:38;;;;;;;14.45;8.00;;;4.50;99.90;;;;;;5013901;28;20050;-84
2023/04/06 06:18:04;;;;;;;14.77;8.38;;;4.30;99.90;;;;;;5012670;28;20098;-82
2023/04/06 06:20:32;;;;;;;13.52;7.72;;;3.90;99.90;;;;;;5026633;28;20046;-81
2023/04/06 06:22:58;;;;;;;18.33;7.70;;;4.20;99.90;;;;;;5012186;28;20038;-80
2023/04/06 06:25:24;;;;;;;12.75;7.82;;;4.70;99.90;;;;;;5008475;28;20363;-83
2023/04/06 06:27:49;;;;;;;12.27;7.47;;;4.50;99.90;;;;;;5032974;28;20026;-83
2023/04/06 06:30:16;;;;;;;12.90;7.68;;;4.70;99.90;;;;;;5005987;28;20100;-84
2023/04/06 06:32:41;;;;;;;13.82;7.32;;;4.40;99.90;;;;;;5009148;28;20508;-83
2023/04/06 06:35:18;;;;;;;14.32;7.63;;;4.60;99.90;;;;;;5018364;28;20040;-82
2023/04/06 06:37:44;;;;;;;13.52;7.78;;;4.60;99.90;;;;;;5012173;28;20088;-84
2023/04/06 06:40:15;;;;;;;12.90;7.80;;;4.80;99.90;;;;;;5014996;28;20194;-81
2023/04/06 06:42:42;;;;;;;19.50;8.05;;;4.80;99.90;;;;;;5010634;28;20065;-84
2023/04/06 06:45:09;;;;;;;14.10;7.47;;;4.90;99.90;;;;;;5018154;28;20033;-83
2023/04/06 06:47:35;;;;;;;18.30;8.32;;;4.90;99.90;;;;;;5014350;28;20077;-84
2023/04/06 06:50:02;;;;;;;11.57;7.40;;;4.90;99.90;;;;;;5014689;28;20026;-85
2023/04/06 06:52:28;;;;;;;13.10;6.95;;;4.90;99.90;;;;;;5021282;28;20030;-83
2023/04/06 06:54:56;;;;;;;13.95;7.13;;;5.00;99.90;;;;;;5014453;28;20025;-87
2023/04/06 06:57:21;;;;;;;15.60;7.45;;;5.10;99.90;;;;;;5019595;28;20061;-87
2023/04/06 06:59:47;;;;;;;12.88;6.95;;;6.00;99.90;;;;;;5011763;28;20066;-88
2023/04/06 07:02:13;;;;;;;12.43;6.90;;;5.50;99.90;;;;;;5013841;28;20034;-85
2023/04/06 07:04:38;;;;;;;12.30;6.80;;;5.30;99.90;;;;;;5013733;28;20045;-85
2023/04/06 07:07:04;;;;;;;13.57;7.18;;;5.50;99.90;;;;;;5010546;28;20045;-86
2023/04/06 07:09:30;;;;;;;15.20;7.50;;;5.50;99.90;;;;;;5014844;28;20018;-86
2023/04/06 07:11:56;;;;;;;12.43;7.30;;;5.60;99.90;;;;;;5012194;28;20022;-84
2023/04/06 07:14:22;;;;;;;22.25;8.15;;;5.90;99.90;;;;;;5015374;28;20037;-85
2023/04/06 07:16:48;;;;;;;12.75;6.72;;;5.70;99.90;;;;;;5012087;28;20847;-83
2023/04/06 07:19:17;;;;;;;12.75;7.20;;;5.90;99.90;;;;;;5014259;28;20388;-85
2023/04/06 07:21:43;;;;;;;11.95;6.45;;;5.90;99.90;;;;;;5012593;28;20533;-86
2023/04/06 07:24:08;;;;;;;14.73;6.93;;;5.90;99.90;;;;;;5013247;28;20094;-84
2023/04/06 07:26:34;;;;;;;12.07;6.55;;;6.10;99.90;;;;;;5015270;28;20030;-84
2023/04/06 07:29:00;;;;;;;13.82;6.90;;;6.00;99.90;;;;;;5022055;28;20444;-87
2023/04/06 07:31:31;;;;;;;11.43;6.50;;;6.30;99.90;;;;;;5018844;28;20021;-86
2023/04/06 07:33:57;;;;;;;9.32;5.50;;;6.30;99.90;;;;;;5016495;28;20026;-82
2023/04/06 07:36:23;;;;;;;13.68;6.35;;;6.40;99.90;;;;;;5025016;28;20018;-85
2023/04/06 07:38:49;;;;;;;9.55;5.80;;;7.10;99.90;;;;;;5019164;28;20030;-86
2023/04/06 07:41:14;;;;;;;9.60;5.78;;;6.60;99.90;;;;;;5014255;28;20053;-83
2023/04/06 07:43:40;;;;;;;13.93;5.75;;;6.90;99.90;;;;;;5013835;28;20044;-84
2023/04/06 07:46:11;;;;;;;10.18;6.13;;;6.70;99.90;;;;;;5002532;28;20099;-87
2023/04/06 07:48:37;;;;;;;;;;;6.80;99.90;;;;;;5008915;28;20031;-86
2023/04/06 07:51:04;;;;;;;7.97;5.28;;;7.10;99.90;;;;;;5012280;28;19937;-87
2023/04/06 07:53:30;;;;;;;19.48;6.47;;;7.20;99.90;;;;;;5021012;28;20006;-85
2023/04/06 07:55:58;;;;;;;9.13;5.57;;;7.40;99.90;;;;;;5023532;28;20049;-85
2023/04/06 07:58:23;;;;;;;9.27;5.50;;;7.30;99.90;;;;;;5019366;28;20018;-86
2023/04/06 08:00:49;;;;;;;9.70;5.53;;;7.50;99.90;;;;;;5032813;28;20032;-88
2023/04/06 08:03:16;;;;;;;10.38;5.63;;;7.80;99.70;;;;;;5019841;28;20045;-86
2023/04/06 08:05:42;;;;;;;17.77;5.90;;;7.70;99.60;;;;;;5020168;28;20038;-86
2023/04/06 08:08:08;;;;;;;10.75;5.30;;;7.80;99.30;;;;;;5013947;28;20038;-83
2023/04/06 08:10:34;;;;;;;9.90;5.85;;;8.20;99.20;;;;;;5020273;28;20121;-85
2023/04/06 08:13:00;;;;;;;10.23;5.78;;;8.10;98.70;;;;;;5014054;28;20029;-86
2023/04/06 08:15:26;;;;;;;11.85;5.85;;;8.20;98.60;;;;;;5021783;28;20022;-85
2023/04/06 08:17:57;;;;;;;9.75;6.10;;;8.40;98.40;;;;;;5010972;28;20034;-86
2023/04/06 08:20:22;;;;;;;;;;;8.60;98.40;;;;;;5009233;28;20040;-85
2023/04/06 08:22:48;;;;;;;8.93;5.88;;;8.60;97.20;;;;;;5007314;28;19913;-86
2023/04/06 08:25:13;;;;;;;10.13;6.10;;;8.80;97.20;;;;;;5017513;28;20331;-87
2023/04/06 08:27:39;;;;;;;9.90;5.22;;;9.00;96.70;;;;;;5007929;28;20014;-87
2023/04/06 08:30:05;;;;;;;8.40;5.13;;;9.10;94.60;;;;;;5019350;28;20590;-88
2023/04/06 08:32:31;;;;;;;10.13;5.25;;;9.10;94.20;;;;;;5004680;28;20018;-87
2023/04/06 08:34:57;;;;;;;8.18;5.10;;;9.20;93.40;;;;;;5017750;28;20022;-89
2023/04/06 08:37:22;;;;;;;7.85;5.28;;;9.40;93.10;;;;;;5012841;28;20064;-86
2023/04/06 08:39:48;;;;;;;7.80;4.85;;;9.50;92.70;;;;;;5014990;28;20057;-87
2023/04/06 08:42:19;;;;;;;9.75;5.40;;;9.50;92.20;;;;;;5014933;28;20215;-87
2023/04/06 08:44:45;;;;;;;9.52;5.45;;;9.60;91.40;;;;;;5013919;28;20025;-86
2023/04/06 08:47:12;;;;;;;8.73;5.25;;;9.80;91.20;;;;;;5014416;28;20919;-86
2023/04/06 08:49:38;;;;;;;10.07;5.63;;;9.80;91.10;;;;;;5008260;28;20451;-89
2023/04/06 08:52:07;;;;;;;8.35;5.00;;;9.90;91.10;;;;;;5010761;28;20030;-87
2023/04/06 08:54:33;;;;;;;10.07;5.78;;;9.90;91.10;;;;;;5010950;28;20094;-84
2023/04/06 08:57:00;;;;;;;9.10;6.50;;;10.00;90.50;;;;;;5010654;28;20034;-87
2023/04/06 08:59:25;;;;;;;9.07;4.80;;;10.10;90.50;;;;;;5016426;28;20061;-86
2023/04/06 09:01:52;;;;;;;8.10;4.80;;;10.10;90.40;;;;;;5016121;28;20265;-85
2023/04/06 09:04:18;;;;;;;8.13;5.28;;;10.20;90.40;;;;;;5019560;28;20030;-86
2023/04/06 09:06:44;;;;;;;7.45;4.45;;;10.20;90.30;;;;;;5013614;28;20041;-87
2023/04/06 09:09:11;;;;;;;11.38;5.50;;;10.20;90.30;;;;;;5016456;28;20053;-89
2023/04/06 09:11:47;;;;;;;9.10;5.15;;;10.30;90.30;;;;;;5016343;28;20026;-87
2023/04/06 09:14:14;;;;;;;7.57;5.13;;;10.40;89.90;;;;;;5012406;28;20033;-87
2023/04/06 09:16:41;;;;;;;7.68;4.93;;;10.40;90.00;;;;;;5000468;28;20030;-86
2023/04/06 09:19:08;;;;;;;9.32;5.50;;;10.60;89.30;;;;;;5008564;28;20021;-86
2023/04/06 09:21:34;;;;;;;8.60;5.05;;;10.80;88.80;;;;;;5012358;28;20026;-88
2023/04/06 09:24:01;;;;;;;9.00;4.75;;;10.90;88.10;;;;;;5012827;28;20061;-88
2023/04/06 09:26:29;;;;;;;12.75;5.55;;;11.00;87.90;;;;;;5006265;28;20026;-87
2023/04/06 09:28:57;;;;;;;7.68;5.00;;;11.10;87.90;;;;;;5011755;28;20085;-85
2023/04/06 09:31:28;;;;;;;8.63;5.70;;;11.10;85.80;;;;;;5010411;28;20023;-83
2023/04/06 09:34:08;;;;;;;11.00;4.88;;;11.10;86.70;;;;;;5013408;28;20023;-87
2023/04/06 09:36:41;;;;;;;7.78;4.45;;;11.30;85.60;;;;;;5014798;28;20038;-86
2023/04/06 09:39:07;;;;;;;8.65;4.75;;;11.40;84.30;;;;;;5011625;28;20022;-88
2023/04/06 09:41:35;;;;;;;7.63;4.18;;;11.50;85.00;;;;;;5011317;28;22536;-87
2023/04/06 09:44:10;;;;;;;8.35;4.90;;;11.70;84.00;;;;;;5010301;28;20056;-88
2023/04/06 09:46:54;;;;;;;9.15;4.57;;;11.80;83.00;;;;;;5013172;28;20037;-87
2023/04/06 09:49:20;;;;;;;7.25;4.63;;;11.80;82.60;;;;;;5016072;28;20370;-89
2023/04/06 09:51:48;;;;;;;7.60;4.72;;;11.90;81.60;;;;;;5013487;28;20037;-86
2023/04/06 09:54:19;;;;;;;7.53;4.70;;;12.00;81.00;;;;;;5014515;28;20023;-87
2023/04/06 09:56:53;;;;;;;7.07;4.45;;;12.00;80.10;;;;;;5012416;28;20029;-89
2023/04/06 09:59:48;;;;;;;8.40;4.82;;;11.90;80.60;;;;;;5016859;28;20141;-85
2023/04/06 10:02:25;;;;;;;8.38;4.53;;;12.00;80.60;;;;;;5011349;28;20250;-84
2023/04/06 10:04:58;;;;;;;7.18;4.50;;;12.00;80.40;;;;;;5012510;28;20030;-87
2023/04/06 10:07:26;;;;;;;10.45;5.13;;;12.20;80.40;;;;;;5009200;28;20122;-88
2023/04/06 10:09:54;;;;;;;8.07;4.63;;;12.60;79.40;;;;;;5009923;28;20115;-88
2023/04/06 10:12:20;;;;;;;6.82;4.38;;;12.30;79.20;;;;;;5008529;28;20030;-88
2023/04/06 10:14:46;;;;;;;6.63;4.40;;;12.40;78.40;;;;;;5010270;28;20069;-89
2023/04/06 10:17:12;;;;;;;9.20;4.68;;;12.50;76.10;;;;;;5018095;28;20120;-88
2023/04/06 10:19:53;;;;;;;8.23;4.80;;;12.60;75.30;;;;;;5012483;28;20084;-86
2023/04/06 10:23:06;;;;;;;9.30;4.55;;;12.50;75.60;;;;;;5012257;28;20026;-86
2023/04/06 10:25:32;;;;;;;7.97;4.00;;;12.50;75.50;;;;;;5025112;28;20054;-87
2023/04/06 10:28:11;;;;;;;6.55;3.95;;;12.50;73.80;;;;;;5008761;28;20014;-84
2023/04/06 10:30:46;;;;;;;8.25;4.35;;;12.50;74.80;;;;;;5016557;28;20026;-84
2023/04/06 10:33:19;;;;;;;9.95;4.70;;;12.50;74.40;;;;;;5011386;28;20076;-88
2023/04/06 10:35:46;;;;;;;7.40;4.70;;;12.40;75.10;;;;;;5018469;28;20038;-85
2023/04/06 10:38:14;;;;;;;8.77;5.03;;;12.40;75.90;;;;;;5013576;28;20404;-85
2023/04/06 10:40:53;;;;;;;7.57;4.80;;;12.60;76.20;;;;;;5017799;28;20023;-87
2023/04/06 10:43:57;;;;;;;10.00;4.85;;;12.50;76.00;;;;;;5029813;28;20013;-87
2023/04/06 10:49:48;;;;;;;11.15;6.28;;;12.60;76.40;;;;;;5013627;28;20015;-85
2023/04/06 10:52:25;;;;;;;11.98;5.63;;;12.50;76.40;;;;;;5009802;28;20101;-85
2023/04/06 10:55:02;;;;;;;11.07;5.72;;;12.60;75.80;;;;;;5003559;28;20029;-84
2023/04/06 10:57:53;;;;;;;7.38;4.22;;;12.70;75.90;;;;;;5012328;28;20026;-83
2023/04/06 11:00:19;;;;;;;6.97;4.70;;;12.60;74.90;;;;;;5003281;28;20034;-81
2023/04/06 11:08:10;;;;;;;9.82;5.13;;;12.70;73.10;;;;;;5015099;28;20053;-85
2023/04/06 11:15:15;;;;;;;7.93;4.53;;;12.90;72.70;;;;;;4945374;29;20043;-87
2023/04/06 11:21:54;;;;;;;7.55;4.72;;;13.00;71.80;;;;;;4798098;29;20038;-85
2023/04/06 11:24:22;;;;;;;8.52;4.50;;;12.90;70.80;;;;;;4795108;29;20065;-87
2023/04/06 11:26:55;;;;;;;9.10;5.30;;;12.80;72.40;;;;;;4946588;28;20045;-83
2023/04/06 11:29:22;;;;;;;8.57;5.05;;;12.90;72.40;;;;;;4983079;28;20980;-86
2023/04/06 11:31:50;;;;;;;7.70;4.20;;;12.90;71.30;;;;;;4985573;28;20023;-84
2023/04/06 11:34:24;;;;;;;9.60;5.18;;;12.90;72.30;;;;;;4980789;28;20023;-84
2023/04/06 11:36:59;;;;;;;9.68;5.35;;;12.90;72.50;;;;;;5003508;28;20052;-82
2023/04/06 11:39:27;;;;;;;9.68;5.10;;;12.70;73.10;;;;;;4981374;28;20093;-84
2023/04/06 11:42:02;;;;;;;10.48;4.82;;;12.80;72.10;;;;;;4984084;28;20258;-85
2023/04/06 11:44:48;;;;;;;10.30;5.25;;;13.00;72.70;;;;;;4996328;28;20011;-87
2023/04/06 11:47:14;;;;;;;7.32;4.40;;;12.90;72.90;;;;;;4984593;28;20046;-86
2023/04/06 11:49:42;;;;;;;10.82;5.10;;;12.90;74.30;;;;;;5001258;28;20024;-85
2023/04/06 11:52:19;;;;;;;11.63;5.93;;;12.90;74.30;;;;;;4987544;28;20030;-85
2023/04/06 11:54:46;;;;;;;10.63;4.93;;;12.90;74.90;;;;;;4964492;28;20294;-84
2023/04/06 11:57:12;;;;;;;11.68;5.43;;;13.10;75.10;;;;;;5007380;28;20038;-83
2023/04/06 11:59:38;;;;;;;9.27;5.03;;;12.90;75.30;;;;;;4987670;28;20026;-85
2023/04/06 12:02:04;;;;;;;10.13;5.25;;;12.90;76.00;;;;;;4994683;28;20034;-87
2023/04/06 12:04:30;;;;;;;10.75;5.03;;;12.90;75.80;;;;;;4984182;28;20101;-84
2023/04/06 12:06:56;;;;;;;8.93;5.25;;;13.10;76.00;;;;;;5003233;28;20075;-85
2023/04/06 12:09:22;;;;;;;15.48;6.20;;;13.30;76.00;;;;;;4997167;28;20082;-86
2023/04/06 12:11:47;;;;;;;10.25;5.97;;;13.30;76.00;;;;;;5004577;28;20022;-86
2023/04/06 12:14:13;;;;;;;10.48;5.15;;;13.40;76.80;;;;;;4987966;28;20078;-87
2023/04/06 12:16:39;;;;;;;11.32;5.60;;;13.20;77.80;;;;;;5010944;28;20030;-83
2023/04/06 12:19:08;;;;;;;9.15;5.00;;;13.10;78.00;;;;;;4968570;28;20090;-83
2023/04/06 12:21:37;;;;;;;12.13;5.68;;;13.10;78.90;;;;;;4994866;28;20035;-85
2023/04/06 12:24:03;;;;;;;8.73;4.75;;;13.10;78.90;;;;;;4977809;28;20050;-85
2023/04/06 12:26:30;;;;;;;12.35;5.65;;;12.90;79.00;;;;;;5000559;28;20494;-84
2023/04/06 12:28:56;;;;;;;12.35;5.47;;;13.00;79.80;;;;;;5002378;28;20045;-86
2023/04/06 12:31:25;;;;;;;10.07;4.97;;;12.90;79.40;;;;;;4987390;28;20498;-85
2023/04/06 12:33:52;;;;;;;11.30;5.63;;;12.90;80.40;;;;;;4986147;28;20029;-85
2023/04/06 12:36:19;;;;;;;11.00;6.00;;;12.90;80.50;;;;;;4987852;28;20026;-86
2023/04/06 12:38:48;;;;;;;11.45;5.60;;;13.00;81.00;;;;;;4981020;28;20018;-87
2023/04/06 12:41:14;;;;;;;12.48;5.25;;;13.00;81.20;;;;;;4989455;28;20454;-83
2023/04/06 12:43:41;;;;;;;10.38;6.07;;;13.20;80.50;;;;;;4983732;28;20050;-85
2023/04/06 12:46:08;;;;;;;10.02;5.50;;;13.20;81.20;;;;;;4970203;28;20085;-86
2023/04/06 12:48:33;;;;;;;10.95;5.70;;;13.20;80.70;;;;;;5002181;28;20049;-85
2023/04/06 12:51:02;;;;;;;11.32;5.25;;;13.20;80.50;;;;;;4983552;28;20026;-88
2023/04/06 12:53:27;;;;;;;11.30;5.78;;;13.30;80.90;;;;;;4982560;28;20025;-85
2023/04/06 12:55:56;;;;;;;11.48;5.55;;;13.30;80.40;;;;;;4982724;28;20034;-84
2023/04/06 12:58:23;;;;;;;8.43;5.00;;;13.30;80.70;;;;;;5001065;28;20026;-85
2023/04/06 13:00:50;;;;;;;9.45;4.97;;;13.40;80.80;;;;;;4981615;28;20066;-85
2023/04/06 13:03:20;;;;;;;9.52;5.20;;;13.50;80.40;;;;;;4980798;28;20034;-87
2023/04/06 13:05:47;;;;;;;11.25;5.72;;;13.40;80.50;;;;;;4973616;28;20043;-85
2023/04/06 13:08:14;;;;;;;10.30;6.00;;;13.50;80.40;;;;;;4962070;28;20089;-83